Time;durP1;ratioP1;P1;durP2;ratioP2;P2;SDS_P1;SDS_P2;PMS_P1;PMS_P2;Temp;Humidity;BMP_temperature;BMP_pressure;BME280_temperature;BME280_humidity;BME280_pressure;Samples;Min_cycle;Max_cycle;Signal;HPM_P1;HPM_P2
2022/08/11 00:00:42;;;;;;;2.42;2.10;;;19.40;42.90;;;;;;5023858;28;20043;-72
2022/08/11 00:03:12;;;;;;;2.58;1.80;;;19.40;43.00;;;;;;5036999;28;20041;-72
2022/08/11 00:05:52;;;;;;;2.60;2.17;;;19.30;43.20;;;;;;5037532;28;20040;-72
2022/08/11 00:08:21;;;;;;;5.63;2.00;;;19.30;43.50;;;;;;5018761;28;20041;-71
2022/08/11 00:10:52;;;;;;;2.58;2.33;;;19.30;43.50;;;;;;4988108;28;20040;-71
2022/08/11 00:13:17;;;;;;;2.60;2.00;;;19.20;43.40;;;;;;5003821;28;20033;-72
2022/08/11 00:15:44;;;;;;;4.38;2.33;;;19.20;43.40;;;;;;5003985;28;20041;-71
2022/08/11 00:18:10;;;;;;;3.65;1.80;;;19.10;43.60;;;;;;5020291;28;20045;-71
2022/08/11 00:20:40;;;;;;;3.40;1.80;;;19.10;43.70;;;;;;5020011;28;20094;-73
2022/08/11 00:23:08;;;;;;;3.37;1.97;;;19.10;43.80;;;;;;5006464;28;20476;-72
2022/08/11 00:25:46;;;;;;;4.80;2.08;;;19.00;43.90;;;;;;4992432;28;20283;-71
2022/08/11 00:28:28;;;;;;;2.47;1.80;;;19.00;44.40;;;;;;5020158;28;20502;-71
2022/08/11 00:30:55;;;;;;;3.90;1.85;;;18.90;44.40;;;;;;5037992;28;20588;-72
2022/08/11 00:33:22;;;;;;;4.20;2.22;;;18.90;44.20;;;;;;5021072;28;20037;-71
2022/08/11 00:35:49;;;;;;;2.30;2.10;;;18.80;44.30;;;;;;5022754;28;20040;-71
2022/08/11 00:38:15;;;;;;;3.03;2.30;;;18.80;44.50;;;;;;5025735;28;20037;-72
2022/08/11 00:40:41;;;;;;;4.20;2.13;;;18.70;44.60;;;;;;5012424;28;20056;-72
2022/08/11 00:43:29;;;;;;;2.70;2.20;;;18.70;44.80;;;;;;5025100;28;20632;-73
2022/08/11 00:46:01;;;;;;;4.30;2.05;;;18.60;45.00;;;;;;5041569;28;20124;-72
2022/08/11 00:48:38;;;;;;;4.35;2.15;;;18.60;44.90;;;;;;5018087;28;20057;-72
2022/08/11 00:51:13;;;;;;;2.90;2.10;;;18.60;45.20;;;;;;5008313;28;20037;-71
2022/08/11 00:54:06;;;;;;;3.95;1.90;;;18.50;45.10;;;;;;5022917;28;20103;-71
2022/08/11 00:57:08;;;;;;;2.22;2.03;;;18.50;45.60;;;;;;5041583;28;20029;-72
2022/08/11 01:00:03;;;;;;;3.85;2.10;;;18.50;45.70;;;;;;5039045;28;20050;-71
2022/08/11 01:02:44;;;;;;;2.17;1.90;;;18.40;45.50;;;;;;5025938;28;20037;-71
2022/08/11 01:05:33;;;;;;;2.70;2.13;;;18.40;45.70;;;;;;5041994;28;20041;-71
2022/08/11 01:08:16;;;;;;;4.93;2.60;;;18.40;45.90;;;;;;5038564;28;20102;-72
2022/08/11 01:10:58;;;;;;;4.53;2.28;;;18.30;45.80;;;;;;5037726;28;20035;-72
2022/08/11 01:13:58;;;;;;;2.50;2.30;;;18.30;45.60;;;;;;5025931;28;20040;-72
2022/08/11 01:16:45;;;;;;;3.95;2.15;;;18.20;46.10;;;;;;5041996;28;20637;-73
2022/08/11 01:19:35;;;;;;;5.53;2.13;;;18.20;45.70;;;;;;5042754;28;20040;-71
2022/08/11 01:22:27;;;;;;;2.60;2.10;;;18.20;46.30;;;;;;5039389;28;20036;-72
2022/08/11 01:25:17;;;;;;;3.30;2.97;;;18.10;46.40;;;;;;5039032;28;20041;-72
2022/08/11 01:27:46;;;;;;;2.30;2.10;;;18.10;46.20;;;;;;5022154;28;20045;-71
2022/08/11 01:30:30;;;;;;;2.75;2.45;;;18.00;46.10;;;;;;5041658;28;20028;-71
2022/08/11 01:33:03;;;;;;;5.43;2.28;;;18.00;46.80;;;;;;5038763;28;20961;-70
2022/08/11 01:35:46;;;;;;;11.73;2.60;;;18.00;46.40;;;;;;5025013;28;20033;-71
2022/08/11 01:38:39;;;;;;;3.15;2.10;;;18.00;46.70;;;;;;5039710;28;20493;-71
2022/08/11 01:41:11;;;;;;;5.07;2.30;;;17.90;47.20;;;;;;5038695;28;20037;-71
2022/08/11 01:44:37;;;;;;;4.30;2.22;;;17.90;46.90;;;;;;5039626;28;20029;-71
2022/08/11 01:50:27;;;;;;;3.30;2.20;;;17.80;47.30;;;;;;5013141;28;20048;-70
2022/08/11 01:53:16;;;;;;;2.67;2.40;;;17.70;47.30;;;;;;4993848;28;20041;-74
2022/08/11 01:56:23;;;;;;;3.63;2.42;;;17.70;47.60;;;;;;5039760;28;20037;-71
2022/08/11 01:59:20;;;;;;;4.30;2.42;;;17.70;47.80;;;;;;5028242;28;20037;-72
2022/08/11 02:02:44;;;;;;;2.50;2.30;;;17.70;47.80;;;;;;5007664;28;20521;-72
2022/08/11 02:05:19;;;;;;;2.58;2.30;;;17.60;47.90;;;;;;5035032;28;20040;-71
2022/08/11 02:08:02;;;;;;;3.50;2.35;;;17.60;47.50;;;;;;5039820;28;20125;-71
2022/08/11 02:13:54;;;;;;;3.15;2.80;;;17.50;47.80;;;;;;5021930;28;20031;-72
2022/08/11 02:16:36;;;;;;;3.95;2.33;;;17.50;48.00;;;;;;5022893;28;20548;-71
2022/08/11 02:25:27;;;;;;;3.05;2.42;;;17.40;48.50;;;;;;5024071;28;20230;-72
2022/08/11 02:28:09;;;;;;;3.00;2.40;;;17.40;48.30;;;;;;5044370;28;20052;-72
2022/08/11 02:30:40;;;;;;;3.95;2.60;;;17.30;48.90;;;;;;5016343;28;20125;-71
2022/08/11 02:33:22;;;;;;;3.20;2.20;;;17.30;48.40;;;;;;5012385;28;20060;-72
2022/08/11 02:35:59;;;;;;;2.80;2.60;;;17.30;48.60;;;;;;5011524;28;20044;-71
2022/08/11 02:38:44;;;;;;;2.60;2.40;;;17.20;48.60;;;;;;5020556;28;20029;-72
2022/08/11 02:44:28;;;;;;;2.95;2.55;;;17.20;48.90;;;;;;5028782;28;20043;-72
2022/08/11 02:47:06;;;;;;;6.38;2.50;;;17.10;48.70;;;;;;5014042;28;20033;-70
2022/08/11 02:49:55;;;;;;;2.42;2.22;;;17.10;48.90;;;;;;5020385;28;20102;-71
2022/08/11 02:52:44;;;;;;;4.63;2.50;;;17.00;49.40;;;;;;4992198;28;20040;-70
2022/08/11 02:55:22;;;;;;;3.40;2.53;;;17.00;49.60;;;;;;5022345;28;20104;-70
2022/08/11 02:57:55;;;;;;;5.78;2.63;;;17.00;49.50;;;;;;5004741;28;20095;-70
2022/08/11 03:00:20;;;;;;;7.72;2.55;;;17.00;49.50;;;;;;5037995;28;20369;-71
2022/08/11 03:03:05;;;;;;;5.93;2.50;;;16.90;49.40;;;;;;5025242;28;20051;-70
2022/08/11 03:05:48;;;;;;;6.28;2.58;;;16.90;49.80;;;;;;5006139;28;20390;-70
2022/08/11 03:08:51;;;;;;;3.90;2.70;;;16.90;49.60;;;;;;5035733;28;20505;-72
2022/08/11 03:17:27;;;;;;;5.78;2.58;;;16.80;50.30;;;;;;5023423;28;20108;-71
2022/08/11 03:20:22;;;;;;;3.72;2.60;;;16.70;50.30;;;;;;5022492;28;20041;-71
2022/08/11 03:23:07;;;;;;;4.53;2.33;;;16.70;50.50;;;;;;5019657;28;20036;-71
2022/08/11 03:25:57;;;;;;;4.28;2.72;;;16.70;50.60;;;;;;5019499;28;20039;-71
2022/08/11 03:28:49;;;;;;;3.85;2.60;;;16.60;50.60;;;;;;5036232;28;20632;-72
2022/08/11 03:31:18;;;;;;;;;;;16.60;50.60;;;;;;5038271;28;20033;-72
2022/08/11 03:34:01;;;;;;;4.68;2.90;;;16.60;50.20;;;;;;5036925;28;19913;-72
2022/08/11 03:36:30;;;;;;;3.97;2.30;;;16.60;50.60;;;;;;5020401;28;20029;-71
2022/08/11 03:39:02;;;;;;;3.35;2.78;;;16.50;50.30;;;;;;5036894;28;20056;-71
2022/08/11 03:41:44;;;;;;;4.60;2.67;;;16.40;50.60;;;;;;5036626;28;20061;-71
2022/08/11 03:44:35;;;;;;;5.40;2.65;;;16.50;50.90;;;;;;5020239;28;20044;-71
2022/08/11 03:47:32;;;;;;;3.40;2.60;;;16.40;50.90;;;;;;5034091;28;20040;-71
2022/08/11 03:50:23;;;;;;;3.50;2.67;;;16.40;51.30;;;;;;5035696;28;20045;-71
2022/08/11 03:53:11;;;;;;;3.38;2.50;;;16.40;51.10;;;;;;5024458;28;20044;-72
2022/08/11 03:55:46;;;;;;;3.00;2.70;;;16.40;51.10;;;;;;5036033;28;20160;-70
2022/08/11 03:58:24;;;;;;;3.50;2.70;;;16.30;51.10;;;;;;5039188;28;20029;-74
2022/08/11 04:00:55;;;;;;;3.00;2.70;;;16.30;51.70;;;;;;5021038;28;20041;-71
2022/08/11 04:03:26;;;;;;;2.90;2.60;;;16.30;51.30;;;;;;5038590;28;20033;-72
2022/08/11 04:06:10;;;;;;;2.70;2.45;;;16.20;51.40;;;;;;5021885;28;20041;-72
2022/08/11 04:09:13;;;;;;;3.63;2.60;;;16.20;51.80;;;;;;5021001;28;20049;-71
2022/08/11 04:12:03;;;;;;;4.40;2.53;;;16.20;52.10;;;;;;5043556;28;20063;-71
2022/08/11 04:17:42;;;;;;;3.97;3.00;;;16.20;51.90;;;;;;5037425;28;20082;-72
2022/08/11 04:20:45;;;;;;;3.65;2.67;;;16.10;52.10;;;;;;5041560;28;20637;-72
2022/08/11 04:23:34;;;;;;;4.03;3.13;;;16.10;52.60;;;;;;5042107;28;20041;-71
2022/08/11 04:26:37;;;;;;;2.83;2.40;;;16.10;52.20;;;;;;5011421;28;20036;-72
2022/08/11 04:29:15;;;;;;;5.63;2.72;;;16.10;52.70;;;;;;5037853;28;20533;-71
2022/08/11 04:31:50;;;;;;;3.03;2.60;;;16.00;52.50;;;;;;5039770;28;20041;-71
2022/08/11 04:34:37;;;;;;;4.03;2.78;;;16.00;52.50;;;;;;5022572;28;20114;-71
2022/08/11 04:39:59;;;;;;;3.80;2.80;;;16.00;52.70;;;;;;5039613;28;20095;-71
2022/08/11 04:43:20;;;;;;;3.78;3.15;;;16.00;52.70;;;;;;5032382;28;20056;-72
2022/08/11 04:46:13;;;;;;;3.40;3.10;;;16.00;53.20;;;;;;5008008;28;20374;-71
2022/08/11 05:01:42;;;;;;;3.35;2.88;;;15.90;53.10;;;;;;5023650;28;20060;-71
2022/08/11 05:07:54;;;;;;;3.78;2.88;;;15.90;53.70;;;;;;5026119;28;20182;-71
2022/08/11 05:10:57;;;;;;;5.20;2.67;;;15.90;53.80;;;;;;5037754;28;20112;-70
2022/08/11 05:36:48;;;;;;;5.10;3.13;;;16.00;54.60;;;;;;4995621;28;20521;-70
2022/08/11 05:58:37;;;;;;;9.23;4.72;;;16.40;55.50;;;;;;4998492;28;20037;-71
2022/08/11 06:01:02;;;;;;;6.38;4.10;;;16.50;55.80;;;;;;4981409;28;20058;-70
2022/08/11 06:03:29;;;;;;;5.32;3.80;;;16.60;55.80;;;;;;4979229;28;20487;-71
2022/08/11 06:05:55;;;;;;;6.32;4.10;;;16.60;55.90;;;;;;4998075;28;20042;-71
2022/08/11 06:08:34;;;;;;;14.25;4.32;;;16.70;56.00;;;;;;5002024;28;20558;-70
2022/08/11 06:11:02;;;;;;;6.30;3.92;;;16.80;56.80;;;;;;4984445;28;20038;-70
2022/08/11 06:13:27;;;;;;;8.32;3.30;;;16.90;56.30;;;;;;5001296;28;20042;-71
2022/08/11 06:15:54;;;;;;;9.07;3.60;;;17.00;56.00;;;;;;4998227;28;20041;-72
2022/08/11 06:18:20;;;;;;;8.38;3.47;;;17.10;56.00;;;;;;4994574;28;20038;-71
2022/08/11 06:20:56;;;;;;;3.38;3.03;;;17.20;55.80;;;;;;5002463;28;20147;-70
2022/08/11 06:23:23;;;;;;;4.43;3.35;;;17.40;55.90;;;;;;4998504;28;20658;-70
2022/08/11 06:25:50;;;;;;;5.50;3.15;;;17.50;55.60;;;;;;5000107;28;20060;-70
2022/08/11 06:28:17;;;;;;;6.55;3.05;;;17.60;55.40;;;;;;5011774;28;20049;-71
2022/08/11 06:30:43;;;;;;;10.15;3.20;;;17.70;55.30;;;;;;5021001;28;20124;-71
2022/08/11 06:33:17;;;;;;;5.60;3.03;;;17.90;55.10;;;;;;4993568;28;20052;-70
2022/08/11 06:35:54;;;;;;;5.93;3.20;;;18.00;55.00;;;;;;5018326;28;20037;-71
2022/08/11 06:38:56;;;;;;;4.55;3.25;;;18.20;54.80;;;;;;5034589;28;20059;-72
2022/08/11 06:41:30;;;;;;;8.05;3.28;;;18.40;54.60;;;;;;5019419;28;20029;-70
2022/08/11 06:44:12;;;;;;;5.28;3.17;;;18.50;54.00;;;;;;4989658;28;20052;-71
2022/08/11 06:46:41;;;;;;;3.72;3.15;;;18.70;54.10;;;;;;5021185;28;20040;-71
2022/08/11 06:51:10;;;;;;;3.67;2.60;;;18.90;53.60;;;;;;5013965;28;20508;-71
2022/08/11 06:52:03;;;;;;;5.93;2.80;;;19.00;53.30;;;;;;5000580;28;20048;-71
2022/08/11 06:54:32;;;;;;;7.25;3.08;;;19.20;53.00;;;;;;5033988;28;20064;-71
2022/08/11 07:02:36;;;;;;;5.20;2.83;;;19.70;52.20;;;;;;5019406;28;20048;-71
2022/08/11 07:05:06;;;;;;;4.30;2.75;;;19.90;51.90;;;;;;4999483;28;21046;-71
2022/08/11 07:16:55;;;;;;;4.47;2.55;;;20.80;50.70;;;;;;5002374;28;20576;-71
2022/08/11 07:30:43;;;;;;;4.22;2.70;;;21.80;49.10;;;;;;5005067;28;20083;-70
2022/08/11 07:33:09;;;;;;;3.03;2.38;;;22.00;48.70;;;;;;5019582;28;20076;-69
2022/08/11 07:35:37;;;;;;;6.97;2.63;;;22.20;48.40;;;;;;5001479;28;20041;-70
2022/08/11 07:38:07;;;;;;;5.53;2.83;;;22.40;48.10;;;;;;4978253;28;20414;-69
2022/08/11 07:40:33;;;;;;;5.78;2.50;;;22.60;47.70;;;;;;4999351;28;20513;-69
2022/08/11 07:42:58;;;;;;;4.82;2.25;;;22.80;47.50;;;;;;5009510;28;20041;-70
2022/08/11 07:53:37;;;;;;;3.83;2.28;;;23.60;46.00;;;;;;5017456;28;20044;-71
2022/08/11 07:56:04;;;;;;;2.97;2.63;;;23.80;45.70;;;;;;5013926;28;20037;-70
2022/08/11 08:17:52;;;;;;;3.60;2.00;;;25.50;42.80;;;;;;5016919;28;20151;-72
2022/08/11 08:20:21;;;;;;;2.70;2.03;;;25.80;42.60;;;;;;5013435;28;20041;-70
2022/08/11 08:22:55;;;;;;;3.80;1.80;;;25.90;42.20;;;;;;4986544;28;20034;-71
2022/08/11 08:25:23;;;;;;;3.58;2.05;;;26.10;41.90;;;;;;4997813;28;20110;-70
2022/08/11 08:27:49;;;;;;;2.42;1.50;;;26.30;41.60;;;;;;5015571;28;20795;-71
2022/08/11 08:32:59;;;;;;;3.30;1.83;;;26.70;40.90;;;;;;5002441;28;20048;-70
2022/08/11 08:35:25;;;;;;;2.88;2.00;;;26.90;40.60;;;;;;5002340;28;20033;-70
2022/08/11 08:37:51;;;;;;;1.65;1.52;;;27.10;40.30;;;;;;5013610;28;20041;-71
2022/08/11 08:40:17;;;;;;;4.57;2.03;;;27.30;40.00;;;;;;5013535;28;20564;-70
2022/08/11 08:42:53;;;;;;;3.20;1.75;;;27.50;39.60;;;;;;5020090;28;20034;-70
2022/08/11 08:45:19;;;;;;;6.50;1.73;;;27.70;38.90;;;;;;5019914;28;20513;-70
2022/08/11 08:47:51;;;;;;;12.13;2.38;;;27.90;38.90;;;;;;4997545;28;20038;-70
2022/08/11 08:50:18;;;;;;;2.65;1.75;;;28.00;38.40;;;;;;5011699;28;20060;-71
2022/08/11 08:52:57;;;;;;;2.45;1.60;;;28.20;38.00;;;;;;5018593;28;20037;-71
2022/08/11 08:55:22;;;;;;;3.58;1.73;;;28.30;37.50;;;;;;5001885;28;20033;-71
2022/08/11 08:57:49;;;;;;;4.60;1.70;;;28.50;37.40;;;;;;5019016;28;20091;-72
2022/08/11 09:00:14;;;;;;;5.13;2.25;;;28.60;37.10;;;;;;5018680;28;20518;-71
2022/08/11 09:02:40;;;;;;;1.88;1.70;;;28.70;36.90;;;;;;5020180;28;20053;-71
2022/08/11 09:05:08;;;;;;;3.63;1.73;;;28.90;36.50;;;;;;5013398;28;20041;-71
2022/08/11 09:07:34;;;;;;;2.67;1.73;;;29.00;36.30;;;;;;4991477;28;20042;-72
2022/08/11 09:09:59;;;;;;;5.70;1.77;;;29.20;35.90;;;;;;4998213;28;20509;-71
2022/08/11 09:12:27;;;;;;;3.72;1.92;;;29.30;35.60;;;;;;5021071;28;20036;-71
2022/08/11 09:15:06;;;;;;;4.82;1.67;;;29.50;35.30;;;;;;5018332;28;20045;-71
2022/08/11 09:17:37;;;;;;;5.18;2.08;;;29.60;35.10;;;;;;5010829;28;20498;-71
2022/08/11 09:20:19;;;;;;;4.60;1.83;;;29.80;34.80;;;;;;5020795;28;20575;-71
2022/08/11 09:28:17;;;;;;;4.93;2.22;;;30.30;34.00;;;;;;5017007;28;20556;-72
2022/08/11 09:30:45;;;;;;;5.25;1.75;;;30.50;33.70;;;;;;5016571;28;20041;-71
2022/08/11 09:33:13;;;;;;;2.20;1.80;;;30.60;33.30;;;;;;5016940;28;20033;-70
2022/08/11 09:35:41;;;;;;;4.25;2.10;;;30.70;32.90;;;;;;4999159;28;20140;-70
2022/08/11 09:40:51;;;;;;;3.53;2.30;;;31.00;32.30;;;;;;5001931;28;20418;-71
2022/08/11 09:46:01;;;;;;;3.28;2.13;;;31.20;31.80;;;;;;5018683;28;20036;-72
2022/08/11 09:48:29;;;;;;;3.70;2.03;;;31.30;31.60;;;;;;5019428;28;20045;-72
2022/08/11 09:50:56;;;;;;;4.47;2.20;;;31.30;31.10;;;;;;5012414;28;20045;-71
2022/08/11 09:53:22;;;;;;;6.32;2.20;;;31.50;30.90;;;;;;5017650;28;20041;-71
2022/08/11 09:55:48;;;;;;;2.03;1.75;;;31.50;30.60;;;;;;4996932;28;20040;-70
2022/08/11 09:58:15;;;;;;;2.72;1.75;;;31.70;30.40;;;;;;5019107;28;20038;-71
2022/08/11 10:00:41;;;;;;;1.70;1.60;;;31.80;30.20;;;;;;5013477;28;20037;-70
2022/08/11 10:03:14;;;;;;;2.03;1.83;;;31.90;30.00;;;;;;5006791;28;20037;-71
2022/08/11 10:08:27;;;;;;;5.45;1.80;;;32.10;29.80;;;;;;5004677;28;20052;-71
2022/08/11 10:10:53;;;;;;;2.55;1.55;;;32.30;29.60;;;;;;5000995;28;20041;-73
2022/08/11 10:13:24;;;;;;;3.15;1.77;;;32.40;29.40;;;;;;5006531;28;20087;-70
2022/08/11 10:15:51;;;;;;;2.65;1.70;;;32.50;29.30;;;;;;5016798;28;20052;-71
2022/08/11 10:21:06;;;;;;;3.05;1.90;;;32.70;29.10;;;;;;5001183;28;20079;-72
2022/08/11 10:33:58;;;;;;;2.28;1.70;;;33.00;28.70;;;;;;5018223;28;20161;-71
2022/08/11 10:34:36;;;;;;;3.00;1.70;;;33.20;28.50;;;;;;5025080;28;20128;-71
2022/08/11 10:37:01;;;;;;;3.88;1.55;;;33.30;28.30;;;;;;5023811;28;20139;-71
2022/08/11 10:39:27;;;;;;;1.85;1.70;;;33.40;28.10;;;;;;5023665;28;20136;-71
2022/08/11 10:44:38;;;;;;;2.75;1.65;;;33.60;27.80;;;;;;5015167;28;20103;-71
2022/08/11 10:51:11;;;;;;;5.15;1.48;;;33.80;27.50;;;;;;5020911;28;20106;-72
2022/08/11 11:00:48;;;;;;;7.53;1.73;;;34.20;27.10;;;;;;5035936;28;20122;-72
2022/08/11 11:03:14;;;;;;;1.58;1.48;;;34.30;27.00;;;;;;5022757;28;20029;-72
2022/08/11 11:05:39;;;;;;;2.72;1.55;;;34.40;26.90;;;;;;5021412;28;20056;-71
2022/08/11 11:10:57;;;;;;;3.90;1.65;;;34.60;26.30;;;;;;5038510;28;20398;-72
2022/08/11 11:18:51;;;;;;;4.03;2.08;;;34.70;26.30;;;;;;5037205;28;20064;-71
2022/08/11 11:21:18;;;;;;;3.70;1.45;;;34.80;26.20;;;;;;5037520;28;20413;-72
2022/08/11 11:23:46;;;;;;;1.90;1.60;;;34.80;26.00;;;;;;5021394;28;20033;-73
2022/08/11 11:26:24;;;;;;;3.97;1.30;;;35.00;25.90;;;;;;5038398;28;20037;-72
2022/08/11 11:28:55;;;;;;;2.78;1.50;;;35.00;25.70;;;;;;5036616;28;20051;-72
2022/08/11 11:31:35;;;;;;;3.45;1.48;;;35.10;25.80;;;;;;5037489;28;20784;-71
2022/08/11 11:34:08;;;;;;;1.98;1.70;;;35.30;25.70;;;;;;5018289;28;20119;-72
2022/08/11 11:36:55;;;;;;;5.57;1.73;;;35.40;25.30;;;;;;5013733;28;20072;-72
2022/08/11 11:39:31;;;;;;;4.50;1.52;;;35.50;25.10;;;;;;5037123;28;20127;-72
2022/08/11 11:42:00;;;;;;;1.65;1.50;;;35.60;25.10;;;;;;5021815;28;20037;-72
2022/08/11 11:44:25;;;;;;;2.92;1.63;;;35.60;25.20;;;;;;5003778;28;20071;-72
2022/08/11 11:46:51;;;;;;;2.70;1.50;;;35.70;25.20;;;;;;5020327;28;20060;-72
2022/08/11 11:49:17;;;;;;;3.40;1.63;;;35.80;25.10;;;;;;5036476;28;20091;-72
2022/08/11 11:51:46;;;;;;;3.42;1.50;;;35.90;25.00;;;;;;5022362;28;20033;-72
2022/08/11 11:54:16;;;;;;;1.40;1.30;;;36.00;24.90;;;;;;5020722;28;20028;-73
2022/08/11 11:56:42;;;;;;;2.20;1.35;;;36.00;24.80;;;;;;4998688;28;20049;-72
2022/08/11 12:01:53;;;;;;;3.17;1.50;;;36.00;24.60;;;;;;5006892;28;20063;-72
2022/08/11 12:04:19;;;;;;;3.83;1.30;;;36.00;24.60;;;;;;5004005;28;20108;-71
2022/08/11 12:06:45;;;;;;;2.20;1.40;;;36.20;24.60;;;;;;5021748;28;20666;-72
2022/08/11 12:09:11;;;;;;;7.18;1.60;;;36.30;24.40;;;;;;5019713;28;20472;-72
2022/08/11 12:14:21;;;;;;;1.90;1.33;;;36.60;24.20;;;;;;5008756;28;20504;-73
2022/08/11 12:16:47;;;;;;;2.92;1.30;;;36.70;24.10;;;;;;5019999;28;20028;-72
2022/08/11 12:19:21;;;;;;;1.92;1.40;;;36.80;23.90;;;;;;4988729;28;20095;-72
2022/08/11 12:27:19;;;;;;;1.48;1.38;;;37.00;23.60;;;;;;5009570;28;20067;-72
2022/08/11 12:29:52;;;;;;;2.30;1.40;;;37.20;23.70;;;;;;5022794;28;20053;-72
2022/08/11 12:32:19;;;;;;;3.30;1.30;;;37.30;23.60;;;;;;5014228;28;20126;-72
2022/08/11 12:34:44;;;;;;;1.67;1.17;;;37.40;23.50;;;;;;5027255;28;20044;-73
2022/08/11 12:37:11;;;;;;;3.13;1.30;;;37.50;23.40;;;;;;5009550;28;20044;-72
2022/08/11 12:45:26;;;;;;;2.65;1.30;;;37.50;23.10;;;;;;5025784;28;20075;-72
2022/08/11 12:53:29;;;;;;;5.75;1.20;;;37.60;22.80;;;;;;5033400;28;20032;-72
2022/08/11 12:58:40;;;;;;;1.75;1.38;;;37.40;22.60;;;;;;5029686;28;20524;-72
2022/08/11 13:06:36;;;;;;;2.10;1.50;;;37.50;22.60;;;;;;5028116;28;20122;-73
2022/08/11 13:09:01;;;;;;;1.45;1.35;;;37.60;22.70;;;;;;5042990;28;20696;-72
2022/08/11 13:14:11;;;;;;;2.30;1.65;;;37.80;22.40;;;;;;5027837;28;20044;-72
2022/08/11 13:19:21;;;;;;;1.83;1.42;;;37.70;22.20;;;;;;5028097;28;20047;-73
2022/08/11 13:21:48;;;;;;;3.83;1.48;;;37.70;22.20;;;;;;5026001;28;20032;-73
2022/08/11 13:24:13;;;;;;;2.78;1.42;;;37.60;22.20;;;;;;5043154;28;20061;-73
2022/08/11 13:26:39;;;;;;;4.57;1.40;;;37.70;22.20;;;;;;5026154;28;20080;-72
2022/08/11 13:29:04;;;;;;;1.20;1.10;;;37.70;22.20;;;;;;5009563;28;20524;-74
2022/08/11 13:31:31;;;;;;;2.58;1.40;;;37.70;22.10;;;;;;5022893;28;20514;-72
2022/08/11 13:33:57;;;;;;;1.30;1.20;;;37.70;22.00;;;;;;5037679;28;20073;-72
2022/08/11 13:36:26;;;;;;;3.47;1.73;;;37.70;22.00;;;;;;5021146;28;20036;-72
2022/08/11 13:38:52;;;;;;;4.70;1.60;;;37.60;22.00;;;;;;5023582;28;20478;-72
2022/08/11 13:41:37;;;;;;;1.98;1.40;;;37.70;21.90;;;;;;5006758;28;20094;-72
2022/08/11 13:44:04;;;;;;;4.75;1.30;;;37.80;22.00;;;;;;5012086;28;20033;-72
2022/08/11 13:46:29;;;;;;;1.83;1.48;;;37.80;21.90;;;;;;5022809;28;20029;-72
2022/08/11 13:48:55;;;;;;;1.55;1.40;;;37.90;21.90;;;;;;5023029;28;20093;-72
2022/08/11 13:51:31;;;;;;;1.88;1.30;;;38.00;22.00;;;;;;5005996;28;20051;-71
2022/08/11 13:54:08;;;;;;;3.13;1.15;;;38.00;21.90;;;;;;5009785;28;20037;-72
2022/08/11 13:56:34;;;;;;;3.17;1.45;;;38.10;21.80;;;;;;5025901;28;20064;-72
2022/08/11 13:59:01;;;;;;;3.00;1.17;;;38.10;22.00;;;;;;5042303;28;20091;-73
2022/08/11 14:01:30;;;;;;;2.85;1.42;;;38.20;21.80;;;;;;5010318;28;20041;-73
2022/08/11 14:04:00;;;;;;;1.42;1.20;;;38.30;21.80;;;;;;5020934;28;20099;-73
2022/08/11 14:06:26;;;;;;;;;;;38.30;21.70;;;;;;5009199;28;20033;-74
2022/08/11 14:08:52;;;;;;;2.42;1.42;;;38.30;21.80;;;;;;5026914;28;19916;-74
2022/08/11 14:14:02;;;;;;;3.17;1.38;;;38.20;21.90;;;;;;5026641;28;20897;-71
2022/08/11 14:16:32;;;;;;;3.53;1.30;;;38.30;21.90;;;;;;5021385;28;20033;-72
2022/08/11 14:19:01;;;;;;;5.38;1.30;;;38.40;21.80;;;;;;5007064;28;20037;-72
2022/08/11 14:24:10;;;;;;;1.48;1.38;;;38.50;21.80;;;;;;5027665;28;20040;-73
2022/08/11 14:26:37;;;;;;;3.33;1.20;;;38.50;21.60;;;;;;4997007;28;20037;-71
2022/08/11 14:29:07;;;;;;;3.20;1.25;;;38.50;21.60;;;;;;4991308;28;20052;-71
2022/08/11 14:31:33;;;;;;;1.17;1.05;;;38.50;21.40;;;;;;5037653;28;20047;-71
2022/08/11 14:34:02;;;;;;;1.88;1.30;;;38.40;21.30;;;;;;5013259;28;20048;-71
2022/08/11 14:36:38;;;;;;;2.67;1.13;;;38.40;21.20;;;;;;5019700;28;20037;-72
2022/08/11 14:39:11;;;;;;;4.75;1.48;;;38.40;21.20;;;;;;5020726;28;20033;-71
2022/08/11 14:47:13;;;;;;;7.32;1.40;;;38.40;21.20;;;;;;5024586;28;20079;-72
2022/08/11 14:49:39;;;;;;;1.77;1.13;;;38.40;21.20;;;;;;5025144;28;20513;-72
2022/08/11 14:52:10;;;;;;;2.08;1.27;;;38.30;21.20;;;;;;5023725;28;20073;-72
2022/08/11 14:57:19;;;;;;;1.88;1.27;;;38.30;21.20;;;;;;5016248;28;20850;-74
2022/08/11 14:59:47;;;;;;;3.05;1.02;;;38.30;21.20;;;;;;5046577;28;20076;-73
2022/08/11 15:04:57;;;;;;;2.45;1.73;;;38.30;21.10;;;;;;5032404;28;20083;-74
2022/08/11 15:07:28;;;;;;;1.83;1.10;;;38.30;21.10;;;;;;5030484;28;20064;-74
2022/08/11 15:10:14;;;;;;;3.97;1.33;;;38.40;21.10;;;;;;5018170;28;20037;-75
2022/08/11 15:12:42;;;;;;;3.08;1.20;;;38.40;21.10;;;;;;5048961;28;20067;-73
2022/08/11 15:17:53;;;;;;;2.83;1.33;;;38.50;21.20;;;;;;5039967;28;20423;-73
2022/08/11 15:25:50;;;;;;;7.10;1.65;;;38.40;21.20;;;;;;5012358;28;20071;-73
2022/08/11 15:45:50;;;;;;;10.15;1.92;;;37.80;21.50;;;;;;5028443;28;20040;-73
2022/08/11 15:48:21;;;;;;;7.03;1.60;;;37.80;21.50;;;;;;5042431;28;20106;-73
2022/08/11 15:50:47;;;;;;;;;;;37.80;21.50;;;;;;5026031;28;20094;-72
2022/08/11 15:53:19;;;;;;;2.67;1.20;;;37.80;21.50;;;;;;5024306;28;19921;-73
2022/08/11 15:55:44;;;;;;;2.92;1.33;;;37.80;21.60;;;;;;5026000;28;20032;-73
2022/08/11 16:04:13;;;;;;;1.55;1.23;;;37.70;21.80;;;;;;5013175;28;20038;-71
2022/08/11 16:06:43;;;;;;;2.17;1.45;;;37.50;21.70;;;;;;5041955;28;20511;-72
2022/08/11 16:09:09;;;;;;;;;;;37.40;21.80;;;;;;5027555;28;20437;-72
2022/08/11 16:11:34;;;;;;;2.45;1.50;;;37.30;21.90;;;;;;5044336;28;19967;-72
2022/08/11 16:16:47;;;;;;;10.75;1.60;;;37.10;22.00;;;;;;5034309;28;20064;-73
2022/08/11 16:19:12;;;;;;;9.25;1.73;;;36.90;22.00;;;;;;5014355;28;20786;-74
2022/08/11 16:21:39;;;;;;;10.00;1.88;;;36.80;22.10;;;;;;5031072;28;20108;-74
2022/08/11 16:24:09;;;;;;;21.05;2.20;;;36.60;22.10;;;;;;5033214;28;20033;-73
2022/08/11 16:26:37;;;;;;;;;;;36.50;22.20;;;;;;5033965;28;20041;-73
2022/08/11 16:29:02;;;;;;;14.43;2.00;;;36.30;22.20;;;;;;5030686;28;19928;-74
2022/08/11 16:31:28;;;;;;;5.85;1.45;;;36.10;22.30;;;;;;5014870;28;20036;-73
2022/08/11 16:33:53;;;;;;;6.75;2.15;;;36.00;22.40;;;;;;5014828;28;20536;-73
2022/08/11 16:39:05;;;;;;;12.85;1.60;;;35.70;22.60;;;;;;5043784;28;20040;-73
2022/08/11 16:47:03;;;;;;;11.38;2.70;;;35.30;22.90;;;;;;5016617;28;20117;-72
2022/08/11 16:49:34;;;;;;;6.00;1.20;;;35.10;23.00;;;;;;5027147;28;20037;-72
2022/08/11 16:52:02;;;;;;;12.35;1.92;;;34.90;23.00;;;;;;5010474;28;20165;-72
2022/08/11 16:54:30;;;;;;;7.75;1.73;;;34.80;23.10;;;;;;5005680;28;20043;-73
2022/08/11 16:56:56;;;;;;;11.07;2.35;;;34.60;23.20;;;;;;5026998;28;20490;-72
2022/08/11 16:59:28;;;;;;;15.38;1.70;;;34.50;23.40;;;;;;5041773;28;20198;-72
2022/08/11 17:13:07;;;;;;;7.60;2.00;;;34.40;23.50;;;;;;5027022;28;20525;-73
2022/08/11 17:13:34;;;;;;;2.80;1.42;;;33.80;23.90;;;;;;5027180;28;20110;-74
2022/08/11 17:16:06;;;;;;;4.05;1.70;;;33.70;24.00;;;;;;5014680;28;20039;-73
2022/08/11 17:18:51;;;;;;;3.47;1.30;;;33.60;24.10;;;;;;5015866;28;20048;-73
2022/08/11 17:21:25;;;;;;;2.03;1.60;;;33.50;24.20;;;;;;5044630;28;20033;-72
2022/08/11 17:24:00;;;;;;;2.15;1.60;;;33.30;24.20;;;;;;5047410;28;20032;-73
2022/08/11 17:29:25;;;;;;;2.67;2.22;;;33.10;24.20;;;;;;5021133;28;20090;-73
2022/08/11 17:37:20;;;;;;;2.05;1.85;;;32.60;24.10;;;;;;5030596;28;20036;-73
2022/08/11 17:39:45;;;;;;;3.13;1.70;;;32.50;24.10;;;;;;5025954;28;20040;-74
2022/08/11 17:50:24;;;;;;;3.08;1.40;;;32.00;24.30;;;;;;5010608;28;20039;-72
2022/08/11 18:01:13;;;;;;;8.75;1.60;;;31.60;24.80;;;;;;5011750;28;20095;-71
2022/08/11 18:03:39;;;;;;;4.03;1.48;;;31.40;24.80;;;;;;5024408;28;20029;-71
2022/08/11 18:06:06;;;;;;;4.03;1.55;;;31.30;24.90;;;;;;5009915;28;20056;-71
